Time;durP1;ratioP1;P1;durP2;ratioP2;P2;SDS_P1;SDS_P2;PMS_P1;PMS_P2;Temp;Humidity;BMP_temperature;BMP_pressure;BME280_temperature;BME280_humidity;BME280_pressure;Samples;Min_cycle;Max_cycle;Signal;HPM_P1;HPM_P2
2021/03/15 00:00:19;;;;;;;12.82;4.45;;;;;;;6.05;69.82;99435.75;4960386;28;20556;-61
2021/03/15 00:02:51;;;;;;;18.55;6.50;;;;;;;6.05;70.14;99430.59;4960447;28;20073;-61
2021/03/15 00:05:16;;;;;;;16.15;5.10;;;;;;;6.05;70.16;99430.59;4961085;28;20074;-61
2021/03/15 00:07:45;;;;;;;11.55;4.45;;;;;;;6.05;70.63;99433.16;4960483;28;20431;-61
2021/03/15 00:10:14;;;;;;;14.30;4.97;;;;;;;6.07;69.85;99425.50;4977503;28;20125;-61
2021/03/15 00:12:43;;;;;;;18.35;5.78;;;;;;;6.05;70.07;99419.44;4960548;28;20039;-61
2021/03/15 00:15:14;;;;;;;18.23;4.53;;;;;;;6.05;70.47;99412.59;4978028;28;20438;-63
2021/03/15 00:17:43;;;;;;;11.98;5.45;;;;;;;6.05;69.93;99410.00;4977805;28;20041;-61
2021/03/15 00:20:14;;;;;;;10.32;4.25;;;;;;;6.04;70.59;99412.56;4977695;28;20034;-61
2021/03/15 00:22:40;;;;;;;8.68;3.90;;;;;;;6.05;69.89;99411.72;4977739;28;20114;-61
2021/03/15 00:25:10;;;;;;;13.88;4.38;;;;;;;6.05;70.57;99399.72;4960474;28;20537;-61
2021/03/15 00:27:39;;;;;;;9.27;3.85;;;;;;;6.04;70.02;99395.41;4977505;28;20026;-61
2021/03/15 00:30:10;;;;;;;11.18;4.63;;;;;;;6.05;70.53;99399.72;4977381;28;20046;-62
2021/03/15 00:32:39;;;;;;;15.23;4.40;;;;;;;6.06;70.21;99401.47;4977684;28;20034;-61
2021/03/15 00:35:09;;;;;;;11.60;4.47;;;;;;;6.06;70.25;99395.47;4959933;28;20043;-61
2021/03/15 00:37:40;;;;;;;7.25;3.60;;;;;;;6.06;69.82;99388.59;4977440;28;20490;-62
2021/03/15 00:40:11;;;;;;;13.27;4.65;;;;;;;6.06;70.74;99387.75;4959963;28;20082;-61
2021/03/15 00:42:40;;;;;;;9.70;3.70;;;;;;;6.05;70.65;99378.28;4959418;28;20034;-62
2021/03/15 00:45:09;;;;;;;13.48;4.38;;;;;;;6.04;70.43;99373.97;4960060;28;20042;-62
2021/03/15 00:47:38;;;;;;;13.07;4.15;;;;;;;6.05;70.87;99366.28;4959706;28;20101;-61
2021/03/15 00:50:08;;;;;;;13.10;4.80;;;;;;;6.04;70.95;99359.38;4977035;28;20512;-61
2021/03/15 00:52:38;;;;;;;11.38;4.03;;;;;;;6.06;70.69;99362.88;4977159;28;20038;-61
2021/03/15 00:55:07;;;;;;;9.63;4.63;;;;;;;6.06;70.97;99351.72;4977054;28;20113;-62
2021/03/15 00:57:36;;;;;;;11.38;4.88;;;;;;;6.04;70.37;99348.25;4959658;28;20034;-62
2021/03/15 01:00:05;;;;;;;13.15;4.40;;;;;;;6.03;70.81;99355.06;4976925;28;20035;-61
2021/03/15 01:02:33;;;;;;;12.45;5.28;;;;;;;6.04;70.97;99346.53;4987244;28;20462;-61
2021/03/15 01:05:04;;;;;;;8.40;5.20;;;;;;;6.04;70.27;99341.38;4977268;28;20034;-62
2021/03/15 01:07:35;;;;;;;8.85;4.20;;;;;;;6.05;70.48;99340.56;4978891;28;20394;-61
2021/03/15 01:10:11;;;;;;;10.55;4.80;;;;;;;6.07;70.97;99338.88;4996413;28;20038;-61
2021/03/15 01:12:36;;;;;;;9.23;4.80;;;;;;;6.07;70.46;99341.47;4996329;28;20096;-61
2021/03/15 01:15:08;;;;;;;10.20;4.45;;;;;;;6.06;70.62;99336.28;4996047;28;20505;-61
2021/03/15 01:17:37;;;;;;;15.55;5.30;;;;;;;6.06;70.27;99331.16;4978697;28;20108;-61
2021/03/15 01:20:05;;;;;;;10.52;4.32;;;;;;;6.05;70.31;99313.97;4996014;28;20034;-61
2021/03/15 01:22:33;;;;;;;9.50;4.03;;;;;;;6.04;71.09;99318.22;4995992;28;20042;-62
2021/03/15 01:25:03;;;;;;;12.23;4.85;;;;;;;6.03;70.70;99313.91;4978933;28;20034;-62
2021/03/15 01:27:31;;;;;;;11.23;5.13;;;;;;;6.03;70.76;99308.78;4996165;28;20065;-61
2021/03/15 01:30:04;;;;;;;9.27;4.25;;;;;;;6.04;70.84;99307.09;4995463;28;20070;-62
2021/03/15 01:32:36;;;;;;;9.43;4.70;;;;;;;6.05;70.54;99308.81;4978483;28;20453;-62
2021/03/15 01:35:04;;;;;;;10.00;4.78;;;;;;;6.04;71.43;99309.66;4978409;28;20501;-62
2021/03/15 01:37:32;;;;;;;10.20;4.70;;;;;;;6.04;70.86;99307.94;4995546;28;20039;-62
2021/03/15 01:40:03;;;;;;;11.80;5.03;;;;;;;6.06;70.84;99305.41;4978633;28;20129;-61
2021/03/15 01:42:28;;;;;;;8.02;4.13;;;;;;;6.06;70.84;99298.56;4995809;28;20090;-62
2021/03/15 01:44:57;;;;;;;14.73;4.57;;;;;;;6.05;70.98;99298.53;4995418;28;20583;-61
2021/03/15 01:47:25;;;;;;;11.35;4.20;;;;;;;6.05;70.77;99290.81;4977748;28;20073;-62
2021/03/15 01:49:54;;;;;;;12.93;4.75;;;;;;;6.04;70.77;99284.78;4995483;28;20033;-62
2021/03/15 01:52:24;;;;;;;10.88;4.78;;;;;;;6.04;71.10;99276.22;4995334;28;20042;-62
2021/03/15 01:54:53;;;;;;;9.27;4.72;;;;;;;6.05;71.02;99273.66;4994946;28;20491;-62
2021/03/15 01:57:25;;;;;;;8.32;3.88;;;;;;;6.06;71.20;99274.56;4977841;28;20042;-62
2021/03/15 01:59:54;;;;;;;13.30;5.35;;;;;;;6.05;71.34;99276.25;4970153;28;20041;-62
2021/03/15 02:02:20;;;;;;;11.68;4.68;;;;;;;6.07;70.97;99271.16;4968274;28;20053;-61
2021/03/15 02:04:51;;;;;;;9.43;4.72;;;;;;;6.07;70.94;99271.16;4958728;28;20121;-62
2021/03/15 02:07:23;;;;;;;9.05;4.22;;;;;;;6.09;70.68;99261.72;4958555;28;20047;-62
2021/03/15 02:09:54;;;;;;;9.88;4.47;;;;;;;6.08;71.40;99255.72;4958462;28;20122;-62
2021/03/15 02:12:55;;;;;;;13.63;4.55;;;;;;;6.08;71.21;99253.16;4975479;28;20035;-62
2021/03/15 02:15:45;;;;;;;7.18;3.47;;;;;;;6.08;70.84;99252.28;4955333;28;20111;-62
2021/03/15 02:18:38;;;;;;;9.15;5.15;;;;;;;6.06;70.59;99249.69;4970394;28;20039;-62
2021/03/15 02:21:38;;;;;;;12.25;4.50;;;;;;;6.07;71.33;99248.00;4976021;28;20042;-62
2021/03/15 02:24:12;;;;;;;8.85;3.95;;;;;;;6.08;71.30;99232.56;4969179;28;20038;-61
2021/03/15 02:27:27;;;;;;;9.38;4.20;;;;;;;6.06;70.89;99239.38;4958596;28;20031;-62
2021/03/15 02:30:26;;;;;;;6.43;4.47;;;;;;;6.07;71.10;99240.28;4917182;28;20046;-62
2021/03/15 02:33:19;;;;;;;6.50;4.15;;;;;;;6.06;70.93;99231.66;4967217;28;20054;-62
2021/03/15 02:35:52;;;;;;;9.63;4.72;;;;;;;6.06;71.48;99229.09;4958570;28;20089;-62
2021/03/15 02:38:30;;;;;;;9.27;5.20;;;;;;;6.06;71.40;99217.94;4958274;28;20053;-61
2021/03/15 02:41:01;;;;;;;9.95;4.63;;;;;;;6.07;71.03;99220.53;4967934;28;20039;-62
2021/03/15 02:43:46;;;;;;;8.75;4.68;;;;;;;6.08;71.23;99216.25;4974997;28;20089;-62
2021/03/15 02:46:29;;;;;;;10.00;6.03;;;;;;;6.09;71.30;99221.44;4957332;28;20042;-62
2021/03/15 02:49:00;;;;;;;11.85;4.68;;;;;;;6.09;71.24;99223.13;4974939;28;20128;-62
2021/03/15 02:51:32;;;;;;;8.32;4.20;;;;;;;6.11;71.56;99221.47;4974734;28;20042;-62
2021/03/15 02:54:03;;;;;;;12.43;4.82;;;;;;;6.09;70.92;99216.31;4975056;28;20097;-62
2021/03/15 02:56:34;;;;;;;10.02;4.75;;;;;;;6.12;71.27;99217.22;4974505;28;20046;-62
2021/03/15 02:59:06;;;;;;;15.18;5.75;;;;;;;6.12;71.40;99220.63;4957391;28;20039;-62
2021/03/15 03:01:37;;;;;;;10.95;5.60;;;;;;;6.12;71.37;99214.63;4977624;28;20117;-62
2021/03/15 03:04:13;;;;;;;9.10;4.70;;;;;;;6.11;71.21;99215.47;4960389;28;20417;-62
2021/03/15 03:06:41;;;;;;;14.18;5.60;;;;;;;6.11;71.02;99213.75;4994239;28;20499;-62
2021/03/15 03:09:10;;;;;;;8.77;4.53;;;;;;;6.11;71.82;99208.59;4994419;28;20042;-62
2021/03/15 03:11:42;;;;;;;7.65;4.72;;;;;;;6.11;71.77;99216.31;4994307;28;20039;-62
2021/03/15 03:14:13;;;;;;;11.35;5.63;;;;;;;6.12;71.02;99217.22;4994162;28;20057;-62
2021/03/15 03:16:42;;;;;;;12.10;5.25;;;;;;;6.11;71.77;99224.03;4976789;28;20035;-62
2021/03/15 03:19:15;;;;;;;8.65;5.15;;;;;;;6.11;71.75;99233.47;4994132;28;20038;-62
2021/03/15 03:21:46;;;;;;;12.68;5.57;;;;;;;6.12;71.92;99230.06;4994336;28;20128;-62
2021/03/15 03:24:16;;;;;;;10.05;5.28;;;;;;;6.09;71.28;99224.03;4993898;28;20499;-62
2021/03/15 03:26:46;;;;;;;8.18;5.20;;;;;;;6.11;71.52;99233.47;4961071;28;20034;-62
2021/03/15 03:29:13;;;;;;;10.90;5.53;;;;;;;6.11;71.46;99234.34;4980397;28;20069;-61
2021/03/15 03:31:46;;;;;;;9.48;4.90;;;;;;;6.11;71.60;99234.34;4998027;28;20502;-62
2021/03/15 03:34:15;;;;;;;7.55;6.03;;;;;;;6.12;71.80;99251.50;4998108;28;20112;-62
2021/03/15 03:36:47;;;;;;;9.88;6.15;;;;;;;6.11;72.11;99249.78;4980468;28;20030;-62
2021/03/15 03:39:17;;;;;;;11.40;6.00;;;;;;;6.12;71.53;99250.66;4980670;28;20045;-62
2021/03/15 03:41:46;;;;;;;8.82;5.60;;;;;;;6.13;71.75;99250.66;4997767;28;20427;-62
2021/03/15 03:44:15;;;;;;;7.88;6.03;;;;;;;6.13;71.70;99255.81;4997621;28;20034;-62
2021/03/15 03:46:42;;;;;;;11.18;5.45;;;;;;;6.14;71.81;99257.56;4964482;28;20030;-62
2021/03/15 03:49:14;;;;;;;10.73;6.80;;;;;;;6.14;71.87;99264.44;4979942;28;20034;-62
2021/03/15 03:52:15;;;;;;;12.40;6.25;;;;;;;6.15;71.74;99268.75;4997877;28;20034;-62
2021/03/15 03:54:49;;;;;;;13.32;7.32;;;;;;;6.14;72.04;99275.56;4957404;28;20446;-63
2021/03/15 03:57:27;;;;;;;10.68;6.28;;;;;;;6.13;71.81;99275.56;4980247;28;20030;-62
2021/03/15 03:59:55;;;;;;;11.38;6.60;;;;;;;6.15;71.97;99277.31;4997250;28;20042;-62
2021/03/15 04:02:25;;;;;;;7.55;6.20;;;;;;;6.16;71.87;99278.16;4970670;28;20097;-62
2021/03/15 04:05:00;;;;;;;7.82;6.75;;;;;;;6.14;72.10;99274.72;4977465;28;20508;-62
2021/03/15 04:07:26;;;;;;;8.75;6.72;;;;;;;6.16;72.32;99285.88;4977649;28;20066;-62
2021/03/15 04:10:06;;;;;;;9.50;7.15;;;;;;;6.15;71.76;99289.31;4960438;28;20363;-62
2021/03/15 04:12:33;;;;;;;12.48;6.57;;;;;;;6.15;71.68;99281.59;4977905;28;20035;-61
2021/03/15 04:15:03;;;;;;;10.43;7.88;;;;;;;6.15;71.91;99287.59;4977911;28;20046;-62
2021/03/15 04:17:38;;;;;;;9.18;7.72;;;;;;;6.15;71.86;99291.91;4977749;28;20073;-62
2021/03/15 04:20:12;;;;;;;9.85;7.28;;;;;;;6.16;71.82;99296.16;4977507;28;20031;-62
2021/03/15 04:22:52;;;;;;;12.60;7.18;;;;;;;6.15;71.86;99308.19;4977561;28;20039;-62
2021/03/15 04:25:21;;;;;;;11.38;8.00;;;;;;;6.14;72.18;99303.88;4944448;28;20038;-62
2021/03/15 04:27:51;;;;;;;11.90;8.00;;;;;;;6.13;71.86;99309.84;4977391;28;20042;-62
2021/03/15 04:30:20;;;;;;;11.10;7.43;;;;;;;6.13;72.31;99311.56;4959956;28;20039;-62
2021/03/15 04:32:53;;;;;;;8.30;7.22;;;;;;;6.14;72.36;99313.31;4977540;28;20047;-62
2021/03/15 04:35:26;;;;;;;10.50;7.40;;;;;;;6.13;71.43;99327.00;4977708;28;20038;-62
2021/03/15 04:37:57;;;;;;;12.68;8.05;;;;;;;6.15;72.01;99320.19;4977295;28;20058;-62
2021/03/15 04:40:28;;;;;;;12.68;8.40;;;;;;;6.14;72.28;99323.59;4959670;28;20034;-62
2021/03/15 04:43:00;;;;;;;9.95;6.95;;;;;;;6.15;71.91;99338.22;4977348;28;20125;-62
2021/03/15 04:45:31;;;;;;;13.95;7.15;;;;;;;6.14;72.24;99336.47;4944238;28;20046;-62
2021/03/15 04:48:03;;;;;;;13.90;7.20;;;;;;;6.15;71.74;99348.50;4959572;28;20558;-62
2021/03/15 04:50:33;;;;;;;9.20;7.38;;;;;;;6.14;71.83;99345.03;4977346;28;20026;-62
2021/03/15 04:53:03;;;;;;;11.68;7.57;;;;;;;6.14;72.38;99354.47;4976945;28;20045;-62
2021/03/15 04:55:32;;;;;;;11.15;7.25;;;;;;;6.14;71.93;99359.63;4959321;28;20398;-62
2021/03/15 04:58:05;;;;;;;15.35;6.60;;;;;;;6.13;72.11;99353.59;4976757;28;20039;-62
2021/03/15 05:00:34;;;;;;;12.23;6.95;;;;;;;6.12;72.80;99364.72;4960168;28;20042;-62
2021/03/15 05:03:06;;;;;;;14.45;6.93;;;;;;;6.13;72.50;99366.47;4959573;28;20047;-62
2021/03/15 05:05:35;;;;;;;14.05;7.07;;;;;;;6.12;72.52;99369.00;4976841;28;20030;-62
2021/03/15 05:08:06;;;;;;;7.88;6.57;;;;;;;6.12;71.79;99380.16;4959358;28;20054;-62
2021/03/15 05:10:35;;;;;;;14.35;7.40;;;;;;;6.10;72.74;99376.66;4977079;28;20043;-62
2021/03/15 05:13:04;;;;;;;14.63;6.75;;;;;;;6.12;72.46;99377.56;4977293;28;20510;-62
2021/03/15 05:15:34;;;;;;;9.48;6.15;;;;;;;6.13;72.51;99384.47;4959751;28;20035;-62
2021/03/15 05:18:05;;;;;;;7.00;5.25;;;;;;;6.15;72.08;99381.94;4976623;28;20062;-62
2021/03/15 05:20:36;;;;;;;8.82;7.00;;;;;;;6.16;72.59;99391.38;4943379;28;20125;-62
2021/03/15 05:23:12;;;;;;;11.38;7.03;;;;;;;6.14;72.47;99398.22;4977074;28;20039;-62
2021/03/15 05:25:40;;;;;;;10.80;7.40;;;;;;;6.13;71.76;99405.06;4959124;28;20077;-62
2021/03/15 05:28:08;;;;;;;14.15;7.57;;;;;;;6.14;72.59;99409.38;4958992;28;20031;-62
2021/03/15 05:30:34;;;;;;;10.00;6.95;;;;;;;6.13;72.38;99402.47;4976537;28;20038;-62
2021/03/15 05:33:02;;;;;;;9.10;7.30;;;;;;;6.12;72.10;99412.75;4959140;28;20086;-62
2021/03/15 05:35:32;;;;;;;9.65;7.43;;;;;;;6.11;72.38;99417.00;4958998;28;20047;-62
2021/03/15 05:37:58;;;;;;;9.05;7.35;;;;;;;6.13;72.12;99417.91;4959620;28;20397;-62
2021/03/15 05:40:30;;;;;;;9.85;7.47;;;;;;;6.13;72.05;99417.91;4976434;28;20130;-62
2021/03/15 05:43:31;;;;;;;11.70;7.28;;;;;;;6.13;72.21;99422.22;4951916;28;20564;-62
2021/03/15 05:46:06;;;;;;;9.82;7.00;;;;;;;6.13;72.05;99432.50;4958964;28;20034;-62
2021/03/15 05:49:00;;;;;;;8.98;6.75;;;;;;;6.14;71.95;99441.97;4976186;28;20130;-62
2021/03/15 05:52:05;;;;;;;11.05;7.70;;;;;;;6.13;71.75;99445.38;4958303;28;20121;-62
2021/03/15 05:54:37;;;;;;;16.23;8.25;;;;;;;6.12;72.52;99446.19;4958933;28;20038;-62
2021/03/15 05:57:24;;;;;;;9.63;8.38;;;;;;;6.12;72.51;99459.91;4975794;28;20509;-62
2021/03/15 06:00:11;;;;;;;16.17;7.45;;;;;;;6.11;72.32;99460.75;4976032;28;20027;-62
2021/03/15 06:03:12;;;;;;;10.68;8.27;;;;;;;6.09;72.35;99462.41;4986844;28;20064;-62
2021/03/15 06:05:51;;;;;;;14.20;8.73;;;;;;;6.08;72.01;99461.53;4978227;28;20502;-62
2021/03/15 06:08:35;;;;;;;11.75;8.27;;;;;;;6.07;72.50;99462.38;4994651;28;20038;-62
2021/03/15 06:11:18;;;;;;;11.90;9.10;;;;;;;6.06;72.27;99477.78;4995430;28;20496;-62
2021/03/15 06:13:48;;;;;;;12.75;8.93;;;;;;;6.08;72.52;99470.94;4995503;28;20040;-62
2021/03/15 06:16:21;;;;;;;10.23;8.50;;;;;;;6.08;72.24;99479.56;4977585;28;20108;-61
2021/03/15 06:18:47;;;;;;;12.00;9.20;;;;;;;6.07;72.48;99480.38;4977658;28;20097;-62
2021/03/15 06:21:19;;;;;;;10.40;8.02;;;;;;;6.08;72.35;99488.97;4994836;28;20390;-62
2021/03/15 06:23:47;;;;;;;12.23;8.02;;;;;;;6.07;73.10;99493.25;4977224;28;20434;-62
2021/03/15 06:26:23;;;;;;;12.95;8.73;;;;;;;6.06;72.29;99503.50;4977919;28;20034;-62
2021/03/15 06:28:55;;;;;;;13.25;9.32;;;;;;;6.04;72.49;99498.31;4977696;28;20073;-62
2021/03/15 06:31:29;;;;;;;9.85;7.72;;;;;;;6.05;72.74;99506.91;4977506;28;20470;-62
2021/03/15 06:34:03;;;;;;;10.80;9.18;;;;;;;6.04;72.30;99508.59;4987618;28;20038;-62
2021/03/15 06:36:36;;;;;;;12.05;8.35;;;;;;;6.07;72.69;99515.56;4995029;28;20064;-62
2021/03/15 06:39:04;;;;;;;12.90;8.98;;;;;;;6.07;72.85;99512.97;4994701;28;20550;-61
2021/03/15 06:41:33;;;;;;;11.65;9.85;;;;;;;6.09;72.80;99517.31;4994409;28;20042;-62
2021/03/15 06:44:09;;;;;;;11.98;8.63;;;;;;;6.09;72.67;99526.72;4994326;28;20065;-62
2021/03/15 06:46:35;;;;;;;16.00;9.02;;;;;;;6.07;72.76;99528.41;4976846;28;20113;-62
2021/03/15 06:49:07;;;;;;;12.05;8.48;;;;;;;6.09;73.08;99524.16;4994399;28;20045;-62
2021/03/15 06:51:36;;;;;;;14.02;9.52;;;;;;;6.09;72.15;99531.88;4994629;28;20041;-62
2021/03/15 06:54:02;;;;;;;13.13;8.95;;;;;;;6.09;72.89;99537.91;4994340;28;20549;-61
2021/03/15 06:56:27;;;;;;;12.40;9.90;;;;;;;6.11;72.54;99544.78;4976805;28;20074;-62
2021/03/15 06:58:59;;;;;;;12.55;8.70;;;;;;;6.09;72.86;99540.47;4993846;28;20042;-62
2021/03/15 07:01:27;;;;;;;11.82;8.90;;;;;;;6.10;72.80;99551.63;4975792;28;20034;-62
2021/03/15 07:04:12;;;;;;;11.18;9.68;;;;;;;6.08;72.72;99561.00;4994102;28;20398;-61
2021/03/15 07:06:40;;;;;;;14.40;9.48;;;;;;;6.08;72.50;99561.00;4976172;28;20144;-61
2021/03/15 07:09:15;;;;;;;11.73;9.43;;;;;;;6.07;73.02;99575.59;4976361;28;20091;-62
2021/03/15 07:11:41;;;;;;;17.10;10.05;;;;;;;6.08;72.75;99581.59;4960431;28;20125;-61
2021/03/15 07:14:27;;;;;;;11.38;8.77;;;;;;;6.08;73.03;99579.00;4976703;28;20050;-62
2021/03/15 07:17:00;;;;;;;14.30;9.77;;;;;;;6.07;72.27;99588.44;4976552;28;20042;-62
2021/03/15 07:19:31;;;;;;;12.85;8.80;;;;;;;6.07;72.74;99596.16;4994155;28;20030;-62
2021/03/15 07:21:59;;;;;;;10.68;9.57;;;;;;;6.07;73.19;99598.75;4957345;28;20414;-62
2021/03/15 07:24:35;;;;;;;10.82;8.38;;;;;;;6.05;72.74;99610.69;4990963;28;20034;-62
2021/03/15 07:27:06;;;;;;;12.52;9.75;;;;;;;6.05;72.30;99608.13;4994177;28;20042;-62
2021/03/15 07:29:40;;;;;;;20.00;9.65;;;;;;;6.04;72.63;99605.50;4960591;28;20592;-62
2021/03/15 07:32:11;;;;;;;12.77;8.82;;;;;;;6.06;72.67;99612.44;4976674;28;20037;-64
2021/03/15 07:34:39;;;;;;;12.55;9.77;;;;;;;6.07;72.71;99606.47;4993728;28;20038;-62
2021/03/15 07:37:09;;;;;;;16.13;10.13;;;;;;;6.07;72.89;99613.31;4993924;28;20077;-62
2021/03/15 07:39:53;;;;;;;14.32;9.68;;;;;;;6.06;72.33;99621.88;4993814;28;20034;-62
2021/03/15 07:42:22;;;;;;;14.80;8.77;;;;;;;6.06;72.78;99627.88;4976657;28;20035;-62
2021/03/15 07:44:53;;;;;;;14.23;9.60;;;;;;;6.07;73.08;99634.75;4976531;28;20065;-62
2021/03/15 07:47:26;;;;;;;12.82;9.70;;;;;;;6.07;72.50;99637.34;4976248;28;20453;-62
2021/03/15 07:50:02;;;;;;;14.95;9.65;;;;;;;6.05;72.63;99631.28;4993773;28;20034;-62
2021/03/15 07:52:48;;;;;;;10.80;8.68;;;;;;;6.05;72.91;99641.56;4993828;28;20042;-62
2021/03/15 07:55:13;;;;;;;14.18;9.75;;;;;;;6.06;73.19;99640.72;4992873;28;20134;-61
2021/03/15 07:57:42;;;;;;;17.23;10.00;;;;;;;6.07;72.80;99647.63;4976691;28;20121;-62
2021/03/15 08:00:10;;;;;;;15.02;10.77;;;;;;;6.07;72.83;99651.91;4994106;28;20509;-61
2021/03/15 08:02:41;;;;;;;15.60;9.65;;;;;;;6.06;73.22;99660.47;4993623;28;20128;-62
2021/03/15 08:05:14;;;;;;;13.38;10.25;;;;;;;6.06;72.69;99661.31;4976379;28;20489;-62
2021/03/15 08:07:42;;;;;;;12.02;9.00;;;;;;;6.07;72.72;99665.63;4976301;28;20035;-61
2021/03/15 08:10:08;;;;;;;17.73;9.70;;;;;;;6.07;72.96;99673.34;4993671;28;20044;-61
2021/03/15 08:12:38;;;;;;;17.20;10.25;;;;;;;6.08;72.93;99671.63;4976420;28;20122;-62
2021/03/15 08:15:07;;;;;;;12.52;7.97;;;;;;;6.07;73.28;99678.50;4997324;28;20038;-61
2021/03/15 08:17:38;;;;;;;17.73;9.93;;;;;;;6.08;72.76;99679.34;4997534;28;20125;-62
2021/03/15 08:20:05;;;;;;;12.18;8.82;;;;;;;6.08;72.60;99679.34;4979772;28;20142;-62
2021/03/15 08:22:43;;;;;;;11.43;8.38;;;;;;;6.08;73.01;99680.25;4997061;28;20038;-62
2021/03/15 08:25:14;;;;;;;14.63;9.35;;;;;;;6.08;72.64;99690.53;4997560;28;20128;-61
2021/03/15 08:27:41;;;;;;;15.05;9.35;;;;;;;6.08;72.99;99692.22;4980166;28;20038;-62
2021/03/15 08:30:22;;;;;;;13.50;8.93;;;;;;;6.08;72.63;99697.38;4997134;28;20030;-62
2021/03/15 08:32:51;;;;;;;11.70;8.32;;;;;;;6.08;72.92;99687.06;4997028;28;20042;-62
2021/03/15 08:35:21;;;;;;;12.57;9.25;;;;;;;6.09;73.19;99697.44;4996757;28;20098;-62
2021/03/15 08:37:52;;;;;;;14.68;9.68;;;;;;;6.08;73.12;99694.78;4979449;28;20452;-62
2021/03/15 08:40:39;;;;;;;13.20;8.70;;;;;;;6.07;72.77;99696.50;4979335;28;20034;-62
2021/03/15 08:43:17;;;;;;;16.58;9.82;;;;;;;6.06;72.52;99705.06;4979107;28;20038;-62
2021/03/15 08:45:51;;;;;;;13.20;9.63;;;;;;;6.07;72.91;99696.50;4963172;28;20494;-62
2021/03/15 08:48:18;;;;;;;14.15;9.45;;;;;;;6.09;73.20;99711.97;4996895;28;20045;-62
2021/03/15 08:50:47;;;;;;;14.82;9.88;;;;;;;6.08;72.76;99708.53;4963313;28;20038;-62
2021/03/15 08:53:35;;;;;;;13.88;8.98;;;;;;;6.08;72.85;99711.13;4996621;28;20498;-62
2021/03/15 08:56:10;;;;;;;13.38;8.18;;;;;;;6.09;73.12;99711.97;4996044;28;20060;-62
2021/03/15 08:58:42;;;;;;;10.68;8.45;;;;;;;6.12;73.21;99708.66;4963984;28;20394;-62
2021/03/15 09:01:11;;;;;;;11.55;8.40;;;;;;;6.13;72.86;99703.53;4996208;28;20046;-61
2021/03/15 09:03:52;;;;;;;16.58;8.63;;;;;;;6.16;73.20;99710.44;4996630;28;20051;-61
2021/03/15 09:06:40;;;;;;;12.35;8.63;;;;;;;6.18;72.77;99717.41;4996151;28;20042;-62
2021/03/15 09:09:10;;;;;;;12.38;8.60;;;;;;;6.20;73.03;99715.75;4978123;28;20037;-62
2021/03/15 09:11:35;;;;;;;12.98;8.55;;;;;;;6.22;73.19;99720.94;4978895;28;20034;-62
2021/03/15 09:14:16;;;;;;;23.75;8.82;;;;;;;6.23;73.14;99728.69;4978238;28;20466;-62
2021/03/15 09:16:53;;;;;;;13.40;7.78;;;;;;;6.22;72.75;99729.53;4978596;28;20061;-62
2021/03/15 09:19:22;;;;;;;17.30;7.97;;;;;;;6.22;72.88;99726.06;4996414;28;20046;-62
2021/03/15 09:21:54;;;;;;;13.23;8.40;;;;;;;6.21;73.19;99722.66;4996043;28;20046;-62
2021/03/15 09:24:46;;;;;;;13.95;7.10;;;;;;;6.21;72.80;99730.38;4995264;28;20041;-61
2021/03/15 09:27:40;;;;;;;14.32;7.03;;;;;;;6.21;72.52;99734.63;4995733;28;20081;-61
2021/03/15 09:30:23;;;;;;;9.77;7.90;;;;;;;6.21;72.35;99734.63;4990039;28;20045;-61
2021/03/15 09:32:57;;;;;;;13.52;7.18;;;;;;;6.21;73.28;99738.09;4978157;28;20089;-61
2021/03/15 09:35:24;;;;;;;;;;;;;;;6.19;72.46;99741.41;4978454;28;20034;-61
2021/03/15 09:37:54;;;;;;;9.90;6.47;;;;;;;6.21;72.66;99744.91;4978127;28;19921;-61
2021/03/15 09:40:24;;;;;;;10.68;7.18;;;;;;;6.21;72.78;99739.78;4962318;28;20446;-62
2021/03/15 09:42:53;;;;;;;10.90;6.60;;;;;;;6.21;72.49;99750.97;4995920;28;20129;-61
2021/03/15 09:45:32;;;;;;;8.48;5.57;;;;;;;6.20;72.73;99741.50;4995633;28;20061;-62
2021/03/15 09:47:59;;;;;;;13.63;5.95;;;;;;;6.21;72.85;99743.22;4978078;28;20069;-62
2021/03/15 09:50:32;;;;;;;8.55;5.45;;;;;;;6.21;72.95;99745.81;4978176;28;20038;-62
2021/03/15 09:53:09;;;;;;;8.27;5.20;;;;;;;6.21;72.42;99744.91;4977872;28;20038;-62
2021/03/15 09:55:44;;;;;;;10.57;5.97;;;;;;;6.20;72.92;99749.22;4977723;28;20465;-61
2021/03/15 09:58:14;;;;;;;;;;;;;;;6.19;72.44;99757.75;4978657;28;20038;-62
2021/03/15 10:00:44;;;;;;;8.52;6.55;;;;;;;6.17;72.84;99754.25;4978311;28;20364;-61
2021/03/15 10:03:24;;;;;;;10.10;5.72;;;;;;;6.18;72.46;99743.13;4994874;28;20141;-62
2021/03/15 10:05:54;;;;;;;9.98;5.53;;;;;;;6.18;72.90;99748.28;4977809;28;20074;-61
2021/03/15 10:08:26;;;;;;;7.80;5.13;;;;;;;6.18;72.64;99748.28;4995150;28;20121;-61
2021/03/15 10:10:51;;;;;;;7.63;5.18;;;;;;;6.19;72.80;99755.19;4994990;28;20041;-61
2021/03/15 10:13:22;;;;;;;9.88;4.95;;;;;;;6.22;72.66;99747.56;4977457;28;20034;-62
2021/03/15 10:15:52;;;;;;;10.15;5.63;;;;;;;6.25;72.90;99754.47;4995273;28;20042;-61
2021/03/15 10:18:19;;;;;;;9.65;6.07;;;;;;;6.27;73.02;99754.50;4961437;28;20036;-61
2021/03/15 10:20:45;;;;;;;8.18;5.05;;;;;;;6.29;72.61;99756.31;4994835;28;20479;-61
2021/03/15 10:23:21;;;;;;;5.53;4.70;;;;;;;6.30;72.98;99750.34;4977487;28;20056;-62
2021/03/15 10:25:59;;;;;;;10.73;5.03;;;;;;;6.32;73.08;99758.09;4994597;28;20478;-62
2021/03/15 10:28:28;;;;;;;8.45;4.25;;;;;;;6.31;72.87;99757.22;4977669;28;20066;-61
2021/03/15 10:30:57;;;;;;;6.53;4.53;;;;;;;6.32;73.15;99760.69;4987472;28;20042;-61
2021/03/15 10:33:29;;;;;;;12.68;4.30;;;;;;;6.32;72.75;99758.97;4994872;28;20030;-61
2021/03/15 10:36:00;;;;;;;7.60;3.92;;;;;;;6.33;72.85;99768.44;4994230;28;20043;-62
2021/03/15 10:38:31;;;;;;;16.45;5.10;;;;;;;6.33;72.73;99757.28;4994356;28;20113;-61
2021/03/15 10:41:02;;;;;;;13.27;4.15;;;;;;;6.32;72.65;99761.53;4994885;28;20038;-61
2021/03/15 10:43:28;;;;;;;7.40;4.68;;;;;;;6.33;72.46;99757.28;4977369;28;20038;-62
2021/03/15 10:46:24;;;;;;;10.65;4.30;;;;;;;6.31;72.38;99766.66;4994392;28;20140;-62
2021/03/15 10:48:50;;;;;;;9.93;4.72;;;;;;;6.33;72.71;99772.72;4960423;28;20421;-61
2021/03/15 10:51:18;;;;;;;17.05;5.60;;;;;;;6.34;73.03;99770.19;4977038;28;20041;-61
2021/03/15 10:53:53;;;;;;;8.35;3.97;;;;;;;6.37;72.40;99767.69;4994771;28;20030;-62
2021/03/15 10:56:27;;;;;;;9.05;4.32;;;;;;;6.38;72.44;99772.03;4976953;28;20062;-61
2021/03/15 10:58:58;;;;;;;14.18;4.47;;;;;;;6.39;72.48;99763.47;4976452;28;20031;-61
2021/03/15 11:01:28;;;;;;;13.20;4.22;;;;;;;6.42;72.52;99770.41;4993880;28;20070;-62
2021/03/15 11:04:11;;;;;;;12.82;4.07;;;;;;;6.45;72.24;99769.63;4969822;28;20041;-62
2021/03/15 11:06:44;;;;;;;11.50;3.88;;;;;;;6.45;72.58;99774.78;4977075;28;20093;-61
2021/03/15 11:09:18;;;;;;;10.05;3.45;;;;;;;6.44;72.46;99770.47;4976137;28;20442;-62
2021/03/15 11:11:55;;;;;;;6.47;3.35;;;;;;;6.47;72.39;99770.53;4976799;28;20390;-62
2021/03/15 11:14:26;;;;;;;7.30;3.40;;;;;;;6.48;72.65;99775.72;4961293;28;20414;-61
2021/03/15 11:17:06;;;;;;;7.90;3.85;;;;;;;6.50;72.06;99775.75;4994084;28;20042;-61
2021/03/15 11:19:37;;;;;;;9.23;3.55;;;;;;;6.49;72.83;99781.75;4976972;28;20065;-61
2021/03/15 11:22:08;;;;;;;10.70;4.22;;;;;;;6.48;72.07;99798.91;4994183;28;20523;-62
2021/03/15 11:24:36;;;;;;;5.65;3.35;;;;;;;6.48;72.35;99804.06;4994073;28;20031;-62
2021/03/15 11:27:05;;;;;;;7.85;3.35;;;;;;;6.46;72.62;99823.72;4993941;28;20154;-61
2021/03/15 11:29:42;;;;;;;10.18;2.95;;;;;;;6.44;72.05;99819.38;4976956;28;20084;-62
2021/03/15 11:32:18;;;;;;;7.20;2.78;;;;;;;6.42;72.45;99821.03;4994238;28;20066;-62
2021/03/15 11:34:52;;;;;;;8.70;3.00;;;;;;;6.39;72.20;99819.22;4993791;28;20034;-62
2021/03/15 11:37:24;;;;;;;;;;;;;;;6.39;72.15;99811.50;4977352;28;20449;-62
2021/03/15 11:39:52;;;;;;;6.28;2.85;;;;;;;6.39;72.95;99814.97;4994244;28;19921;-61
2021/03/15 11:42:31;;;;;;;5.95;2.70;;;;;;;6.42;72.19;99824.47;4994170;28;20034;-61
2021/03/15 11:44:57;;;;;;;7.72;3.83;;;;;;;6.43;72.82;99820.19;4976488;28;20129;-61
2021/03/15 11:47:25;;;;;;;5.32;2.83;;;;;;;6.44;72.59;99817.66;4993497;28;20038;-61
2021/03/15 11:49:59;;;;;;;6.03;2.25;;;;;;;6.45;72.21;99810.81;4981002;28;20038;-61
2021/03/15 11:52:37;;;;;;;9.23;2.75;;;;;;;6.47;72.62;99811.72;4980346;28;20034;-61
2021/03/15 11:55:03;;;;;;;5.18;3.28;;;;;;;6.48;72.54;99813.47;4997788;28;20121;-61
2021/03/15 11:57:32;;;;;;;10.02;2.53;;;;;;;6.49;72.22;99810.94;4980220;28;20096;-62
2021/03/15 12:00:02;;;;;;;9.10;2.78;;;;;;;6.51;72.70;99821.28;4997570;28;20041;-61
2021/03/15 12:02:34;;;;;;;7.80;2.58;;;;;;;6.51;72.58;99837.63;4970111;28;20134;-62